sensor_id;sensor_type;location;lat;lon;timestamp;P1;durP1;ratioP1;P2;durP2;ratioP2
73893;SDS011;62699;50.534;12.784;2023-03-21T00:03:58;12.55;;;6.88;;
73893;SDS011;62699;50.534;12.784;2023-03-21T00:08:58;12.20;;;6.35;;
73893;SDS011;62699;50.534;12.784;2023-03-21T00:13:58;12.65;;;5.82;;
73893;SDS011;62699;50.534;12.784;2023-03-21T00:19:01;11.52;;;6.45;;
73893;SDS011;62699;50.534;12.784;2023-03-21T00:24:02;9.63;;;5.60;;
73893;SDS011;62699;50.534;12.784;2023-03-21T00:29:04;13.73;;;7.00;;
73893;SDS011;62699;50.534;12.784;2023-03-21T00:34:05;13.93;;;6.68;;
73893;SDS011;62699;50.534;12.784;2023-03-21T00:39:05;12.15;;;5.78;;
73893;SDS011;62699;50.534;12.784;2023-03-21T00:44:06;11.30;;;6.40;;
73893;SDS011;62699;50.534;12.784;2023-03-21T00:49:06;10.85;;;5.70;;
73893;SDS011;62699;50.534;12.784;2023-03-21T00:54:08;10.50;;;4.78;;
73893;SDS011;62699;50.534;12.784;2023-03-21T00:59:11;12.27;;;6.35;;
73893;SDS011;62699;50.534;12.784;2023-03-21T01:04:12;11.13;;;6.68;;
73893;SDS011;62699;50.534;12.784;2023-03-21T01:09:16;12.40;;;6.15;;
73893;SDS011;62699;50.534;12.784;2023-03-21T01:14:19;11.75;;;5.55;;
73893;SDS011;62699;50.534;12.784;2023-03-21T01:19:23;11.43;;;5.10;;
73893;SDS011;62699;50.534;12.784;2023-03-21T01:24:26;9.60;;;4.80;;
73893;SDS011;62699;50.534;12.784;2023-03-21T01:29:26;10.52;;;4.68;;
73893;SDS011;62699;50.534;12.784;2023-03-21T01:34:26;9.52;;;4.25;;
73893;SDS011;62699;50.534;12.784;2023-03-21T01:39:31;9.65;;;4.68;;
73893;SDS011;62699;50.534;12.784;2023-03-21T01:44:50;8.65;;;4.32;;
73893;SDS011;62699;50.534;12.784;2023-03-21T01:50:01;8.00;;;4.07;;
73893;SDS011;62699;50.534;12.784;2023-03-21T01:55:06;10.00;;;4.32;;
73893;SDS011;62699;50.534;12.784;2023-03-21T02:00:11;11.35;;;4.57;;
73893;SDS011;62699;50.534;12.784;2023-03-21T02:05:12;10.32;;;5.30;;
73893;SDS011;62699;50.534;12.784;2023-03-21T02:10:12;8.23;;;4.43;;
73893;SDS011;62699;50.534;12.784;2023-03-21T02:15:15;8.77;;;4.20;;
73893;SDS011;62699;50.534;12.784;2023-03-21T02:20:33;7.53;;;3.47;;
73893;SDS011;62699;50.534;12.784;2023-03-21T02:25:52;10.95;;;4.30;;
73893;SDS011;62699;50.534;12.784;2023-03-21T02:31:13;7.72;;;4.20;;
73893;SDS011;62699;50.534;12.784;2023-03-21T02:36:27;8.00;;;3.72;;
73893;SDS011;62699;50.534;12.784;2023-03-21T02:41:53;7.72;;;3.78;;
73893;SDS011;62699;50.534;12.784;2023-03-21T02:47:04;6.90;;;3.55;;
73893;SDS011;62699;50.534;12.784;2023-03-21T02:52:12;7.50;;;3.58;;
73893;SDS011;62699;50.534;12.784;2023-03-21T02:57:16;6.25;;;3.40;;
73893;SDS011;62699;50.534;12.784;2023-03-21T03:02:19;7.65;;;3.75;;
73893;SDS011;62699;50.534;12.784;2023-03-21T03:07:39;8.00;;;4.22;;
73893;SDS011;62699;50.534;12.784;2023-03-21T03:12:58;9.45;;;4.47;;
73893;SDS011;62699;50.534;12.784;2023-03-21T03:18:18;7.57;;;4.00;;
73893;SDS011;62699;50.534;12.784;2023-03-21T03:23:44;10.35;;;5.07;;
73893;SDS011;62699;50.534;12.784;2023-03-21T03:28:49;9.43;;;5.15;;
73893;SDS011;62699;50.534;12.784;2023-03-21T03:33:53;9.60;;;4.68;;
73893;SDS011;62699;50.534;12.784;2023-03-21T03:38:56;9.73;;;5.15;;
73893;SDS011;62699;50.534;12.784;2023-03-21T03:43:58;9.73;;;4.93;;
73893;SDS011;62699;50.534;12.784;2023-03-21T03:49:10;10.23;;;5.05;;
73893;SDS011;62699;50.534;12.784;2023-03-21T03:54:15;10.57;;;5.28;;
73893;SDS011;62699;50.534;12.784;2023-03-21T03:59:20;10.10;;;5.28;;
73893;SDS011;62699;50.534;12.784;2023-03-21T04:04:24;11.80;;;5.13;;
73893;SDS011;62699;50.534;12.784;2023-03-21T04:09:27;10.02;;;5.50;;
73893;SDS011;62699;50.534;12.784;2023-03-21T04:14:29;12.73;;;5.78;;
73893;SDS011;62699;50.534;12.784;2023-03-21T04:19:29;13.15;;;6.35;;
73893;SDS011;62699;50.534;12.784;2023-03-21T04:24:30;12.32;;;5.13;;
73893;SDS011;62699;50.534;12.784;2023-03-21T04:29:32;12.30;;;5.40;;
73893;SDS011;62699;50.534;12.784;2023-03-21T04:34:33;12.70;;;5.55;;
73893;SDS011;62699;50.534;12.784;2023-03-21T04:39:39;12.25;;;5.47;;
73893;SDS011;62699;50.534;12.784;2023-03-21T04:44:39;12.05;;;5.32;;
73893;SDS011;62699;50.534;12.784;2023-03-21T04:49:40;12.10;;;5.47;;
73893;SDS011;62699;50.534;12.784;2023-03-21T04:54:43;9.02;;;4.63;;
73893;SDS011;62699;50.534;12.784;2023-03-21T04:59:44;11.55;;;5.35;;
73893;SDS011;62699;50.534;12.784;2023-03-21T05:04:46;12.93;;;5.00;;
73893;SDS011;62699;50.534;12.784;2023-03-21T05:09:46;11.98;;;5.57;;
73893;SDS011;62699;50.534;12.784;2023-03-21T05:14:46;12.75;;;5.30;;
73893;SDS011;62699;50.534;12.784;2023-03-21T05:19:47;10.27;;;5.07;;
73893;SDS011;62699;50.534;12.784;2023-03-21T05:24:50;9.52;;;4.75;;
73893;SDS011;62699;50.534;12.784;2023-03-21T05:29:50;11.98;;;5.65;;
73893;SDS011;62699;50.534;12.784;2023-03-21T05:34:52;10.80;;;4.95;;
73893;SDS011;62699;50.534;12.784;2023-03-21T05:39:52;10.70;;;4.55;;
73893;SDS011;62699;50.534;12.784;2023-03-21T05:44:54;13.20;;;5.65;;
73893;SDS011;62699;50.534;12.784;2023-03-21T05:49:56;9.90;;;5.40;;
73893;SDS011;62699;50.534;12.784;2023-03-21T05:54:56;11.38;;;5.10;;
73893;SDS011;62699;50.534;12.784;2023-03-21T05:59:57;11.68;;;5.50;;
73893;SDS011;62699;50.534;12.784;2023-03-21T06:04:57;12.65;;;5.10;;
73893;SDS011;62699;50.534;12.784;2023-03-21T06:09:57;9.23;;;4.90;;
73893;SDS011;62699;50.534;12.784;2023-03-21T06:14:58;10.82;;;4.30;;
73893;SDS011;62699;50.534;12.784;2023-03-21T06:20:00;20.23;;;9.40;;
73893;SDS011;62699;50.534;12.784;2023-03-21T06:25:01;36.25;;;17.50;;
73893;SDS011;62699;50.534;12.784;2023-03-21T06:30:02;8.90;;;4.10;;
73893;SDS011;62699;50.534;12.784;2023-03-21T06:35:04;8.52;;;3.72;;
73893;SDS011;62699;50.534;12.784;2023-03-21T06:40:04;9.15;;;3.92;;
73893;SDS011;62699;50.534;12.784;2023-03-21T06:45:06;16.08;;;7.03;;
73893;SDS011;62699;50.534;12.784;2023-03-21T06:50:07;9.63;;;3.45;;
73893;SDS011;62699;50.534;12.784;2023-03-21T06:55:08;9.80;;;4.05;;
73893;SDS011;62699;50.534;12.784;2023-03-21T07:00:09;8.10;;;3.65;;
73893;SDS011;62699;50.534;12.784;2023-03-21T07:05:10;9.35;;;4.70;;
73893;SDS011;62699;50.534;12.784;2023-03-21T07:10:11;11.45;;;3.95;;
73893;SDS011;62699;50.534;12.784;2023-03-21T07:15:11;7.75;;;3.85;;
73893;SDS011;62699;50.534;12.784;2023-03-21T07:20:12;7.95;;;3.50;;
73893;SDS011;62699;50.534;12.784;2023-03-21T07:25:13;8.57;;;3.85;;
73893;SDS011;62699;50.534;12.784;2023-03-21T07:30:13;7.07;;;3.28;;
73893;SDS011;62699;50.534;12.784;2023-03-21T07:35:15;7.10;;;2.97;;
73893;SDS011;62699;50.534;12.784;2023-03-21T07:40:16;6.72;;;3.20;;
73893;SDS011;62699;50.534;12.784;2023-03-21T07:45:17;9.85;;;4.78;;
73893;SDS011;62699;50.534;12.784;2023-03-21T07:50:20;6.20;;;2.88;;
73893;SDS011;62699;50.534;12.784;2023-03-21T07:55:21;6.82;;;3.33;;
73893;SDS011;62699;50.534;12.784;2023-03-21T08:00:21;7.72;;;2.50;;
73893;SDS011;62699;50.534;12.784;2023-03-21T08:05:23;5.78;;;2.80;;
73893;SDS011;62699;50.534;12.784;2023-03-21T08:10:25;9.23;;;2.80;;
73893;SDS011;62699;50.534;12.784;2023-03-21T08:15:25;7.13;;;3.08;;
73893;SDS011;62699;50.534;12.784;2023-03-21T08:20:26;5.90;;;2.65;;
73893;SDS011;62699;50.534;12.784;2023-03-21T08:25:28;5.03;;;2.58;;
73893;SDS011;62699;50.534;12.784;2023-03-21T08:30:29;3.80;;;2.42;;
73893;SDS011;62699;50.534;12.784;2023-03-21T08:35:30;7.63;;;2.30;;
73893;SDS011;62699;50.534;12.784;2023-03-21T08:40:30;6.15;;;2.88;;
73893;SDS011;62699;50.534;12.784;2023-03-21T08:45:31;7.10;;;2.90;;
73893;SDS011;62699;50.534;12.784;2023-03-21T08:50:31;7.57;;;3.00;;
73893;SDS011;62699;50.534;12.784;2023-03-21T08:55:32;4.68;;;2.40;;
73893;SDS011;62699;50.534;12.784;2023-03-21T09:00:33;5.15;;;2.40;;
73893;SDS011;62699;50.534;12.784;2023-03-21T09:05:33;6.63;;;3.20;;
73893;SDS011;62699;50.534;12.784;2023-03-21T09:10:35;3.20;;;1.70;;
73893;SDS011;62699;50.534;12.784;2023-03-21T09:15:35;2.42;;;1.50;;
73893;SDS011;62699;50.534;12.784;2023-03-21T09:20:36;2.35;;;1.30;;
73893;SDS011;62699;50.534;12.784;2023-03-21T09:25:37;6.20;;;2.58;;
73893;SDS011;62699;50.534;12.784;2023-03-21T09:30:37;2.42;;;1.40;;
73893;SDS011;62699;50.534;12.784;2023-03-21T09:35:38;3.00;;;1.30;;
73893;SDS011;62699;50.534;12.784;2023-03-21T09:51:45;23.98;;;10.05;;
73893;SDS011;62699;50.534;12.784;2023-03-21T09:56:55;3.87;;;1.40;;
73893;SDS011;62699;50.534;12.784;2023-03-21T10:02:00;3.85;;;1.67;;
73893;SDS011;62699;50.534;12.784;2023-03-21T10:07:02;2.05;;;1.42;;
73893;SDS011;62699;50.534;12.784;2023-03-21T10:12:04;2.30;;;1.10;;
73893;SDS011;62699;50.534;12.784;2023-03-21T10:22:32;7.50;;;3.22;;
73893;SDS011;62699;50.534;12.784;2023-03-21T10:27:34;1.65;;;1.20;;
73893;SDS011;62699;50.534;12.784;2023-03-21T10:32:37;3.95;;;1.63;;
73893;SDS011;62699;50.534;12.784;2023-03-21T10:37:38;2.45;;;1.13;;
73893;SDS011;62699;50.534;12.784;2023-03-21T10:42:39;3.78;;;1.48;;
73893;SDS011;62699;50.534;12.784;2023-03-21T10:47:41;2.90;;;1.20;;
73893;SDS011;62699;50.534;12.784;2023-03-21T10:52:54;1.50;;;0.90;;
73893;SDS011;62699;50.534;12.784;2023-03-21T10:58:02;1.88;;;1.10;;
73893;SDS011;62699;50.534;12.784;2023-03-21T11:03:53;7.20;;;2.83;;
73893;SDS011;62699;50.534;12.784;2023-03-21T11:08:39;3.25;;;0.90;;
73893;SDS011;62699;50.534;12.784;2023-03-21T11:13:43;16.45;;;8.05;;
73893;SDS011;62699;50.534;12.784;2023-03-21T11:18:44;2.38;;;1.33;;
73893;SDS011;62699;50.534;12.784;2023-03-21T11:23:49;1.95;;;1.10;;
73893;SDS011;62699;50.534;12.784;2023-03-21T11:28:51;1.88;;;1.20;;
73893;SDS011;62699;50.534;12.784;2023-03-21T11:33:53;2.08;;;1.10;;
73893;SDS011;62699;50.534;12.784;2023-03-21T11:38:59;20.20;;;13.27;;
73893;SDS011;62699;50.534;12.784;2023-03-21T11:49:56;1.95;;;1.10;;
73893;SDS011;62699;50.534;12.784;2023-03-21T12:05:18;1.15;;;0.95;;
73893;SDS011;62699;50.534;12.784;2023-03-21T12:15:38;2.17;;;1.20;;
73893;SDS011;62699;50.534;12.784;2023-03-21T12:20:59;3.35;;;1.50;;
73893;SDS011;62699;50.534;12.784;2023-03-21T12:26:18;6.47;;;2.30;;
73893;SDS011;62699;50.534;12.784;2023-03-21T12:31:49;5.15;;;2.03;;
73893;SDS011;62699;50.534;12.784;2023-03-21T12:37:16;7.00;;;1.65;;
73893;SDS011;62699;50.534;12.784;2023-03-21T12:47:55;1.05;;;0.82;;
73893;SDS011;62699;50.534;12.784;2023-03-21T12:53:24;0.95;;;0.90;;
73893;SDS011;62699;50.534;12.784;2023-03-21T12:58:26;4.25;;;2.15;;
73893;SDS011;62699;50.534;12.784;2023-03-21T13:08:38;1.75;;;1.25;;
73893;SDS011;62699;50.534;12.784;2023-03-21T13:13:48;1.52;;;1.00;;
73893;SDS011;62699;50.534;12.784;2023-03-21T13:19:15;0.95;;;0.93;;
73893;SDS011;62699;50.534;12.784;2023-03-21T13:24:31;1.65;;;1.00;;
73893;SDS011;62699;50.534;12.784;2023-03-21T13:34:48;2.85;;;1.73;;
73893;SDS011;62699;50.534;12.784;2023-03-21T13:39:58;6.68;;;4.65;;
73893;SDS011;62699;50.534;12.784;2023-03-21T13:45:01;2.67;;;1.33;;
73893;SDS011;62699;50.534;12.784;2023-03-21T13:55:18;2.53;;;1.08;;
73893;SDS011;62699;50.534;12.784;2023-03-21T14:05:24;0.98;;;0.88;;
73893;SDS011;62699;50.534;12.784;2023-03-21T14:10:33;10.15;;;4.00;;
73893;SDS011;62699;50.534;12.784;2023-03-21T14:15:37;6.75;;;2.58;;
73893;SDS011;62699;50.534;12.784;2023-03-21T14:20:40;1.63;;;1.20;;
73893;SDS011;62699;50.534;12.784;2023-03-21T14:25:42;1.40;;;1.00;;
73893;SDS011;62699;50.534;12.784;2023-03-21T14:30:46;2.97;;;1.02;;
73893;SDS011;62699;50.534;12.784;2023-03-21T14:35:51;5.25;;;1.20;;
73893;SDS011;62699;50.534;12.784;2023-03-21T14:40:54;1.95;;;1.30;;
73893;SDS011;62699;50.534;12.784;2023-03-21T14:45:57;2.45;;;1.20;;
73893;SDS011;62699;50.534;12.784;2023-03-21T14:51:04;2.63;;;1.10;;
73893;SDS011;62699;50.534;12.784;2023-03-21T15:01:24;5.75;;;2.42;;
73893;SDS011;62699;50.534;12.784;2023-03-21T15:06:28;3.40;;;1.42;;
73893;SDS011;62699;50.534;12.784;2023-03-21T15:11:33;3.78;;;1.77;;
73893;SDS011;62699;50.534;12.784;2023-03-21T15:16:36;12.17;;;6.27;;
73893;SDS011;62699;50.534;12.784;2023-03-21T15:21:38;8.05;;;3.20;;
73893;SDS011;62699;50.534;12.784;2023-03-21T15:27:01;7.13;;;3.13;;
73893;SDS011;62699;50.534;12.784;2023-03-21T15:32:04;25.23;;;11.88;;
73893;SDS011;62699;50.534;12.784;2023-03-21T15:37:07;14.90;;;7.30;;
73893;SDS011;62699;50.534;12.784;2023-03-21T15:52:51;11.02;;;6.35;;
73893;SDS011;62699;50.534;12.784;2023-03-21T15:58:14;13.50;;;5.78;;
73893;SDS011;62699;50.534;12.784;2023-03-21T16:03:17;9.45;;;4.22;;
73893;SDS011;62699;50.534;12.784;2023-03-21T16:08:31;19.45;;;9.77;;
73893;SDS011;62699;50.534;12.784;2023-03-21T16:13:36;44.43;;;21.90;;
73893;SDS011;62699;50.534;12.784;2023-03-21T16:18:36;54.92;;;24.45;;
73893;SDS011;62699;50.534;12.784;2023-03-21T16:23:37;41.45;;;16.52;;
73893;SDS011;62699;50.534;12.784;2023-03-21T16:28:38;6.88;;;2.75;;
73893;SDS011;62699;50.534;12.784;2023-03-21T16:33:38;5.37;;;1.80;;
73893;SDS011;62699;50.534;12.784;2023-03-21T16:38:38;2.78;;;1.90;;
73893;SDS011;62699;50.534;12.784;2023-03-21T16:43:39;2.13;;;1.45;;
73893;SDS011;62699;50.534;12.784;2023-03-21T16:48:42;3.17;;;1.60;;
73893;SDS011;62699;50.534;12.784;2023-03-21T16:53:46;3.65;;;1.60;;
73893;SDS011;62699;50.534;12.784;2023-03-21T16:58:47;5.32;;;2.03;;
73893;SDS011;62699;50.534;12.784;2023-03-21T17:03:47;4.35;;;1.77;;
73893;SDS011;62699;50.534;12.784;2023-03-21T17:08:49;4.30;;;1.83;;
73893;SDS011;62699;50.534;12.784;2023-03-21T17:13:52;3.85;;;1.77;;
73893;SDS011;62699;50.534;12.784;2023-03-21T17:18:53;3.88;;;1.77;;
73893;SDS011;62699;50.534;12.784;2023-03-21T17:23:54;3.45;;;1.70;;
73893;SDS011;62699;50.534;12.784;2023-03-21T17:28:55;2.58;;;1.60;;
73893;SDS011;62699;50.534;12.784;2023-03-21T17:33:56;5.72;;;1.92;;
73893;SDS011;62699;50.534;12.784;2023-03-21T17:38:57;2.80;;;1.58;;
73893;SDS011;62699;50.534;12.784;2023-03-21T17:43:58;2.92;;;1.85;;
73893;SDS011;62699;50.534;12.784;2023-03-21T17:48:59;2.72;;;1.50;;
73893;SDS011;62699;50.534;12.784;2023-03-21T17:54:00;3.38;;;1.60;;
73893;SDS011;62699;50.534;12.784;2023-03-21T17:59:02;2.95;;;1.85;;
73893;SDS011;62699;50.534;12.784;2023-03-21T18:04:04;2.90;;;1.80;;
73893;SDS011;62699;50.534;12.784;2023-03-21T18:09:07;5.28;;;2.50;;
73893;SDS011;62699;50.534;12.784;2023-03-21T18:14:10;5.82;;;2.72;;
73893;SDS011;62699;50.534;12.784;2023-03-21T18:19:10;7.38;;;2.70;;
73893;SDS011;62699;50.534;12.784;2023-03-21T18:24:12;6.93;;;3.20;;
73893;SDS011;62699;50.534;12.784;2023-03-21T18:29:13;6.88;;;3.50;;
73893;SDS011;62699;50.534;12.784;2023-03-21T18:34:17;6.93;;;2.95;;
73893;SDS011;62699;50.534;12.784;2023-03-21T18:39:17;7.45;;;3.00;;
73893;SDS011;62699;50.534;12.784;2023-03-21T18:44:18;5.25;;;2.40;;
73893;SDS011;62699;50.534;12.784;2023-03-21T18:49:18;5.78;;;2.33;;
73893;SDS011;62699;50.534;12.784;2023-03-21T18:54:19;6.22;;;3.10;;
73893;SDS011;62699;50.534;12.784;2023-03-21T18:59:20;9.55;;;2.83;;
73893;SDS011;62699;50.534;12.784;2023-03-21T19:04:21;9.65;;;4.30;;
73893;SDS011;62699;50.534;12.784;2023-03-21T19:09:23;11.13;;;5.25;;
73893;SDS011;62699;50.534;12.784;2023-03-21T19:14:24;11.52;;;5.07;;
73893;SDS011;62699;50.534;12.784;2023-03-21T19:19:24;10.40;;;5.45;;
73893;SDS011;62699;50.534;12.784;2023-03-21T19:24:26;10.25;;;5.40;;
73893;SDS011;62699;50.534;12.784;2023-03-21T19:29:27;11.15;;;5.80;;
73893;SDS011;62699;50.534;12.784;2023-03-21T19:34:28;13.68;;;6.30;;
73893;SDS011;62699;50.534;12.784;2023-03-21T19:39:28;10.57;;;5.90;;
73893;SDS011;62699;50.534;12.784;2023-03-21T19:44:28;10.55;;;5.32;;
73893;SDS011;62699;50.534;12.784;2023-03-21T19:49:29;12.20;;;5.80;;
73893;SDS011;62699;50.534;12.784;2023-03-21T19:54:29;10.75;;;5.28;;
73893;SDS011;62699;50.534;12.784;2023-03-21T19:59:31;11.07;;;5.22;;
73893;SDS011;62699;50.534;12.784;2023-03-21T20:04:31;10.15;;;5.28;;
73893;SDS011;62699;50.534;12.784;2023-03-21T20:09:32;11.20;;;5.80;;
73893;SDS011;62699;50.534;12.784;2023-03-21T20:14:32;9.88;;;4.63;;
73893;SDS011;62699;50.534;12.784;2023-03-21T20:19:32;8.73;;;4.20;;
73893;SDS011;62699;50.534;12.784;2023-03-21T20:24:32;8.88;;;4.22;;
73893;SDS011;62699;50.534;12.784;2023-03-21T20:29:38;9.00;;;4.28;;
73893;SDS011;62699;50.534;12.784;2023-03-21T20:34:38;10.95;;;4.40;;
73893;SDS011;62699;50.534;12.784;2023-03-21T20:39:39;11.13;;;5.18;;
73893;SDS011;62699;50.534;12.784;2023-03-21T20:44:40;7.68;;;4.10;;
73893;SDS011;62699;50.534;12.784;2023-03-21T20:49:41;8.65;;;4.60;;
73893;SDS011;62699;50.534;12.784;2023-03-21T20:54:42;9.50;;;4.50;;
73893;SDS011;62699;50.534;12.784;2023-03-21T20:59:42;8.57;;;4.15;;
73893;SDS011;62699;50.534;12.784;2023-03-21T21:04:46;10.85;;;4.95;;
73893;SDS011;62699;50.534;12.784;2023-03-21T21:09:48;9.30;;;4.70;;
73893;SDS011;62699;50.534;12.784;2023-03-21T21:14:49;9.77;;;4.63;;
73893;SDS011;62699;50.534;12.784;2023-03-21T21:19:49;10.02;;;4.85;;
73893;SDS011;62699;50.534;12.784;2023-03-21T21:24:49;9.35;;;4.43;;
73893;SDS011;62699;50.534;12.784;2023-03-21T21:29:50;8.88;;;4.30;;
73893;SDS011;62699;50.534;12.784;2023-03-21T21:34:50;10.27;;;4.50;;
73893;SDS011;62699;50.534;12.784;2023-03-21T21:39:51;8.45;;;3.45;;
73893;SDS011;62699;50.534;12.784;2023-03-21T21:44:51;6.85;;;3.45;;
73893;SDS011;62699;50.534;12.784;2023-03-21T21:49:52;9.15;;;3.95;;
73893;SDS011;62699;50.534;12.784;2023-03-21T21:54:53;7.15;;;3.60;;
73893;SDS011;62699;50.534;12.784;2023-03-21T21:59:53;8.38;;;3.60;;
73893;SDS011;62699;50.534;12.784;2023-03-21T22:04:54;7.00;;;3.30;;
73893;SDS011;62699;50.534;12.784;2023-03-21T22:09:55;4.68;;;2.65;;
73893;SDS011;62699;50.534;12.784;2023-03-21T22:14:55;7.78;;;3.42;;
73893;SDS011;62699;50.534;12.784;2023-03-21T22:19:56;6.97;;;3.33;;
73893;SDS011;62699;50.534;12.784;2023-03-21T22:24:56;8.35;;;3.38;;
73893;SDS011;62699;50.534;12.784;2023-03-21T22:29:56;7.05;;;3.25;;
73893;SDS011;62699;50.534;12.784;2023-03-21T22:34:56;6.13;;;3.17;;
73893;SDS011;62699;50.534;12.784;2023-03-21T22:39:57;7.53;;;3.17;;
73893;SDS011;62699;50.534;12.784;2023-03-21T22:44:58;5.22;;;2.30;;
73893;SDS011;62699;50.534;12.784;2023-03-21T22:49:58;5.07;;;2.60;;
73893;SDS011;62699;50.534;12.784;2023-03-21T22:54:59;4.03;;;2.65;;
73893;SDS011;62699;50.534;12.784;2023-03-21T23:00:00;6.18;;;2.60;;
73893;SDS011;62699;50.534;12.784;2023-03-21T23:05:02;7.38;;;2.90;;
73893;SDS011;62699;50.534;12.784;2023-03-21T23:10:04;6.50;;;2.70;;
73893;SDS011;62699;50.534;12.784;2023-03-21T23:15:06;7.25;;;3.13;;
73893;SDS011;62699;50.534;12.784;2023-03-21T23:20:07;5.85;;;2.58;;
73893;SDS011;62699;50.534;12.784;2023-03-21T23:25:10;4.28;;;2.33;;
73893;SDS011;62699;50.534;12.784;2023-03-21T23:30:12;3.97;;;2.10;;
73893;SDS011;62699;50.534;12.784;2023-03-21T23:35:13;2.40;;;1.73;;
73893;SDS011;62699;50.534;12.784;2023-03-21T23:40:14;3.15;;;1.80;;
73893;SDS011;62699;50.534;12.784;2023-03-21T23:45:14;3.20;;;1.92;;
73893;SDS011;62699;50.534;12.784;2023-03-21T23:50:15;4.68;;;2.20;;
73893;SDS011;62699;50.534;12.784;2023-03-21T23:55:15;4.75;;;2.10;;
